Time;durP1;ratioP1;P1;durP2;ratioP2;P2;SDS_P1;SDS_P2;PMS_P1;PMS_P2;Temp;Humidity;BMP_temperature;BMP_pressure;BME280_temperature;BME280_humidity;BME280_pressure;Samples;Min_cycle;Max_cycle;Signal;HPM_P1;HPM_P2
2022/01/05 00:01:03;;;;;;;13.13;7.22;;;;;;;9.18;100.00;98655.91;6367405;27;20047;-71
2022/01/05 00:04:04;;;;;;;12.98;6.72;;;;;;;9.24;100.00;98658.84;6349479;27;20041;-71
2022/01/05 00:07:06;;;;;;;12.40;7.30;;;;;;;9.22;100.00;98647.75;6369022;27;20096;-72
2022/01/05 00:10:08;;;;;;;12.50;7.72;;;;;;;9.23;100.00;98657.22;6371053;27;20123;-71
2022/01/05 00:13:09;;;;;;;12.25;6.95;;;;;;;9.28;100.00;98656.84;6351876;27;20049;-72
2022/01/05 00:16:11;;;;;;;14.65;7.53;;;;;;;9.24;100.00;98653.66;6366471;27;20052;-72
2022/01/05 00:19:12;;;;;;;12.40;7.57;;;;;;;9.17;100.00;98656.88;6353293;27;20415;-72
2022/01/05 00:22:13;;;;;;;12.93;7.25;;;;;;;9.24;100.00;98656.25;6371556;27;20039;-72
2022/01/05 00:25:14;;;;;;;14.13;7.38;;;;;;;9.11;100.00;98657.34;6371781;27;20118;-72
2022/01/05 00:28:15;;;;;;;24.85;14.02;;;;;;;9.05;100.00;98656.84;6370070;27;20057;-72
2022/01/05 00:31:15;;;;;;;12.85;8.18;;;;;;;9.10;100.00;98640.91;6353157;27;20494;-71
2022/01/05 00:34:16;;;;;;;16.67;9.40;;;;;;;9.12;100.00;98635.56;6353190;27;20047;-73
2022/01/05 00:37:18;;;;;;;14.30;8.70;;;;;;;9.16;100.00;98653.44;6370148;27;20122;-72
2022/01/05 00:40:19;;;;;;;11.68;7.40;;;;;;;9.13;100.00;98645.88;6370098;27;20035;-71
2022/01/05 00:43:20;;;;;;;14.60;9.13;;;;;;;9.17;100.00;98649.06;6369706;27;20055;-72
2022/01/05 00:46:21;;;;;;;12.68;7.30;;;;;;;9.15;100.00;98654.38;6353074;28;20043;-71
2022/01/05 00:49:22;;;;;;;14.05;7.65;;;;;;;9.14;100.00;98652.75;6369927;28;20040;-71
2022/01/05 00:52:23;;;;;;;10.93;6.75;;;;;;;9.19;100.00;98655.81;6370112;28;20353;-71
2022/01/05 00:55:24;;;;;;;13.18;7.60;;;;;;;9.16;100.00;98643.03;6371298;27;20099;-72
2022/01/05 00:58:25;;;;;;;11.32;7.28;;;;;;;9.15;100.00;98662.19;6370921;27;20487;-71
2022/01/05 01:01:26;;;;;;;11.43;7.22;;;;;;;9.11;100.00;98663.38;6370099;28;20039;-71
2022/01/05 01:04:27;;;;;;;12.20;6.90;;;;;;;9.13;100.00;98656.28;6352678;28;20043;-71
2022/01/05 01:07:28;;;;;;;13.98;7.60;;;;;;;9.12;100.00;98666.78;6370979;28;20077;-71
2022/01/05 01:10:28;;;;;;;11.68;6.93;;;;;;;9.06;100.00;98660.31;6369784;28;20467;-71
2022/01/05 01:13:29;;;;;;;10.43;7.15;;;;;;;9.14;100.00;98657.09;6369656;28;20124;-71
2022/01/05 01:16:30;;;;;;;12.73;7.38;;;;;;;9.15;100.00;98658.75;6352687;28;20471;-72
2022/01/05 01:19:31;;;;;;;12.48;7.00;;;;;;;9.16;100.00;98653.44;6371044;27;20039;-71
2022/01/05 01:22:33;;;;;;;15.52;7.45;;;;;;;9.15;100.00;98651.78;6369711;28;20112;-72
2022/01/05 01:25:35;;;;;;;10.52;7.10;;;;;;;9.17;100.00;98652.50;6369630;28;20108;-71
2022/01/05 01:28:35;;;;;;;12.63;7.78;;;;;;;9.23;100.00;98657.22;6370762;27;20502;-71
2022/01/05 01:31:36;;;;;;;12.75;7.90;;;;;;;9.23;100.00;98652.00;6369584;28;20100;-71
2022/01/05 01:34:37;;;;;;;16.25;9.32;;;;;;;9.30;100.00;98646.34;6370751;27;20043;-71
2022/01/05 01:37:38;;;;;;;14.35;8.60;;;;;;;9.28;100.00;98649.88;6372608;27;20043;-72
2022/01/05 01:40:41;;;;;;;12.43;7.47;;;;;;;9.31;100.00;98648.81;6375481;27;20043;-71
2022/01/05 01:43:43;;;;;;;16.30;8.25;;;;;;;9.34;100.00;98639.94;6375239;27;20039;-71
2022/01/05 01:46:44;;;;;;;17.83;7.85;;;;;;;9.33;100.00;98627.84;6375286;27;20066;-72
2022/01/05 01:49:44;;;;;;;14.38;8.35;;;;;;;9.41;100.00;98639.34;6375124;27;20049;-71
2022/01/05 01:52:45;;;;;;;14.82;7.93;;;;;;;9.38;100.00;98630.94;6374382;27;20172;-72
2022/01/05 01:55:48;;;;;;;14.00;8.40;;;;;;;9.31;100.00;98627.16;6373821;27;20039;-72
2022/01/05 01:58:49;;;;;;;14.57;8.43;;;;;;;9.38;100.00;98623.94;6375047;27;20035;-72
2022/01/05 02:01:50;;;;;;;12.93;7.68;;;;;;;9.43;100.00;98629.63;6372858;27;20116;-72
2022/01/05 02:04:51;;;;;;;14.00;7.63;;;;;;;9.40;100.00;98622.06;6374076;27;20042;-72
2022/01/05 02:07:51;;;;;;;11.70;7.55;;;;;;;9.38;100.00;98629.16;6373475;27;20036;-72
2022/01/05 02:10:53;;;;;;;13.73;7.97;;;;;;;9.41;100.00;98628.09;6375071;27;20111;-71
2022/01/05 02:13:54;;;;;;;13.45;8.27;;;;;;;9.45;100.00;98627.75;6356419;27;20043;-72
2022/01/05 02:16:56;;;;;;;12.50;7.15;;;;;;;9.47;100.00;98628.44;6373238;27;20059;-72
2022/01/05 02:19:58;;;;;;;14.27;7.47;;;;;;;9.45;100.00;98624.28;6374394;27;20427;-72
2022/01/05 02:23:00;;;;;;;14.98;7.35;;;;;;;9.51;100.00;98623.81;6374401;27;20050;-72
2022/01/05 02:26:02;;;;;;;12.88;6.38;;;;;;;9.44;100.00;98625.25;6373247;27;20047;-72
2022/01/05 02:29:04;;;;;;;13.55;7.47;;;;;;;9.51;100.00;98617.78;6374145;27;20118;-71
2022/01/05 02:32:06;;;;;;;13.20;6.60;;;;;;;9.46;100.00;98610.34;6373028;27;20506;-72
2022/01/05 02:35:10;;;;;;;13.82;7.10;;;;;;;9.50;100.00;98611.75;6374190;27;20051;-72
2022/01/05 02:38:11;;;;;;;10.80;7.00;;;;;;;9.54;100.00;98602.75;6373973;27;20068;-71
2022/01/05 02:41:13;;;;;;;14.68;7.35;;;;;;;9.52;100.00;98603.81;6374062;27;20042;-72
2022/01/05 02:44:13;;;;;;;12.37;7.37;;;;;;;9.48;100.00;98603.22;6372801;27;20046;-71
2022/01/05 02:47:14;;;;;;;12.68;7.78;;;;;;;9.57;100.00;98601.66;6372114;27;20122;-71
2022/01/05 02:50:15;;;;;;;15.73;7.45;;;;;;;9.50;99.19;98603.13;6373160;27;20047;-71
2022/01/05 02:53:16;;;;;;;11.63;6.85;;;;;;;9.50;100.00;98598.72;6373911;27;20039;-71
2022/01/05 02:56:18;;;;;;;13.57;7.53;;;;;;;9.51;99.82;98604.75;6373702;27;20061;-71
2022/01/05 02:59:19;;;;;;;13.95;7.97;;;;;;;9.55;98.75;98604.38;6372310;27;20054;-71
2022/01/05 03:02:20;;;;;;;12.85;6.85;;;;;;;9.58;98.78;98596.34;6372292;27;20039;-72
2022/01/05 03:05:21;;;;;;;13.88;7.43;;;;;;;9.55;99.36;98600.97;6373426;27;20039;-71
2022/01/05 03:08:22;;;;;;;13.27;6.50;;;;;;;9.46;99.65;98607.72;6355054;27;20039;-71
2022/01/05 03:11:23;;;;;;;12.82;7.15;;;;;;;9.52;99.19;98606.44;6371931;27;20043;-71
2022/01/05 03:14:23;;;;;;;12.93;6.90;;;;;;;9.50;98.96;98598.72;6371805;27;20051;-71
2022/01/05 03:17:24;;;;;;;11.13;6.63;;;;;;;9.56;99.21;98600.03;6371922;27;20516;-71
2022/01/05 03:20:26;;;;;;;10.02;6.75;;;;;;;9.45;100.00;98609.50;6371710;27;20486;-71
2022/01/05 03:23:27;;;;;;;11.43;6.73;;;;;;;9.51;99.40;98600.38;6354966;27;20451;-72
2022/01/05 03:26:29;;;;;;;11.73;6.75;;;;;;;9.47;99.58;98604.16;6371819;27;20066;-72
2022/01/05 03:29:30;;;;;;;14.25;7.68;;;;;;;9.54;99.59;98612.34;6371663;27;20064;-71
2022/01/05 03:32:41;;;;;;;18.33;10.18;;;;;;;9.49;99.34;98610.06;6371483;27;20134;-71
2022/01/05 03:35:45;;;;;;;11.50;7.60;;;;;;;9.45;99.44;98611.28;6372706;27;20040;-71
2022/01/05 03:38:45;;;;;;;16.75;8.85;;;;;;;9.49;99.39;98610.06;6371323;27;20039;-72
2022/01/05 03:41:46;;;;;;;15.40;9.68;;;;;;;9.37;98.83;98608.44;6371399;27;20039;-72
2022/01/05 03:44:47;;;;;;;13.45;8.80;;;;;;;9.43;98.00;98601.00;6371138;27;20148;-71
2022/01/05 03:47:48;;;;;;;15.27;8.75;;;;;;;9.46;97.97;98600.75;6372476;27;20143;-72
2022/01/05 03:50:49;;;;;;;13.10;8.05;;;;;;;9.39;98.99;98596.13;6370964;27;20454;-71
2022/01/05 03:53:49;;;;;;;12.57;7.25;;;;;;;9.44;98.54;98599.22;6372393;27;20049;-71
2022/01/05 03:56:50;;;;;;;13.18;7.30;;;;;;;9.35;98.60;98594.72;6370944;27;20042;-72
2022/01/05 03:59:52;;;;;;;13.77;7.65;;;;;;;9.36;99.34;98604.19;6370622;27;20039;-72
2022/01/05 04:02:53;;;;;;;16.42;7.47;;;;;;;9.32;99.46;98594.97;6372136;27;20039;-72
2022/01/05 04:05:54;;;;;;;10.27;6.50;;;;;;;9.40;98.52;98598.63;6353623;27;20039;-72
2022/01/05 04:08:54;;;;;;;13.13;7.05;;;;;;;9.33;99.52;98594.00;6370576;27;20050;-72
2022/01/05 04:11:55;;;;;;;14.50;6.57;;;;;;;9.30;99.18;98591.66;6370368;27;20491;-71
2022/01/05 04:14:56;;;;;;;11.85;6.68;;;;;;;9.38;99.51;98597.09;6370178;27;20138;-71
2022/01/05 04:17:57;;;;;;;11.95;6.40;;;;;;;9.32;99.03;98590.59;6370435;27;20047;-72
2022/01/05 04:20:58;;;;;;;14.43;7.00;;;;;;;9.30;100.00;98596.88;6371890;27;20466;-72
2022/01/05 04:23:59;;;;;;;13.48;6.90;;;;;;;9.28;100.00;98590.00;6353485;27;20055;-71
2022/01/05 04:26:59;;;;;;;12.55;6.50;;;;;;;9.19;100.00;98593.34;6370775;27;20525;-71
2022/01/05 04:30:01;;;;;;;15.95;7.45;;;;;;;9.17;100.00;98595.25;6370268;27;20054;-71
2022/01/05 04:33:02;;;;;;;14.57;8.63;;;;;;;9.20;100.00;98592.38;6370171;27;20050;-71
2022/01/05 04:36:03;;;;;;;21.17;11.38;;;;;;;9.18;100.00;98591.72;6370309;27;20118;-71
2022/01/05 04:39:04;;;;;;;27.45;14.05;;;;;;;9.11;100.00;98590.50;6371236;27;20046;-71
2022/01/05 04:42:05;;;;;;;15.10;10.10;;;;;;;9.14;100.00;98600.69;6371262;27;20043;-71
2022/01/05 04:45:07;;;;;;;14.98;8.95;;;;;;;9.15;100.00;98597.13;6370076;27;20066;-72
2022/01/05 04:48:08;;;;;;;16.42;9.82;;;;;;;9.17;100.00;98582.22;6370179;28;20039;-72
2022/01/05 04:51:09;;;;;;;11.90;6.95;;;;;;;9.20;100.00;98596.75;6371105;28;20067;-72
2022/01/05 04:54:10;;;;;;;15.23;7.47;;;;;;;9.22;100.00;98589.66;6371370;27;20118;-72
2022/01/05 04:57:11;;;;;;;15.68;7.00;;;;;;;9.21;100.00;98598.44;6371183;28;20035;-72
2022/01/05 05:00:12;;;;;;;11.32;6.88;;;;;;;9.24;100.00;98591.19;6370923;27;20048;-72
2022/01/05 05:03:13;;;;;;;13.07;6.80;;;;;;;9.08;100.00;98591.59;6369973;28;20039;-72
2022/01/05 05:06:14;;;;;;;13.45;7.88;;;;;;;9.19;100.00;98588.13;6369852;28;20045;-73
2022/01/05 05:09:15;;;;;;;11.95;6.90;;;;;;;9.16;100.00;98585.78;6371135;28;20111;-72
2022/01/05 05:12:15;;;;;;;14.18;7.30;;;;;;;9.14;100.00;98579.03;6355547;27;20050;-72
2022/01/05 05:15:16;;;;;;;13.43;7.07;;;;;;;9.15;100.00;98583.31;6376183;27;20047;-72
2022/01/05 05:18:17;;;;;;;14.63;7.53;;;;;;;9.14;100.00;98573.81;6376003;27;20112;-73
2022/01/05 05:21:18;;;;;;;13.88;7.55;;;;;;;9.08;100.00;98577.75;6357768;27;20049;-73
2022/01/05 05:24:19;;;;;;;12.32;7.47;;;;;;;9.15;100.00;98591.09;6376231;27;20407;-72
2022/01/05 05:27:19;;;;;;;11.85;7.25;;;;;;;9.14;100.00;98592.03;6375920;27;20088;-73
2022/01/05 05:30:20;;;;;;;12.63;7.72;;;;;;;9.12;100.00;98583.53;6375857;27;20039;-73
2022/01/05 05:33:21;;;;;;;12.98;7.72;;;;;;;9.10;100.00;98577.63;6374564;27;20046;-72
2022/01/05 05:36:22;;;;;;;15.82;7.60;;;;;;;9.13;100.00;98580.00;6374601;27;20070;-72
2022/01/05 05:39:23;;;;;;;14.07;7.47;;;;;;;9.05;100.00;98593.59;6375438;27;20043;-72
2022/01/05 05:42:25;;;;;;;13.95;7.47;;;;;;;9.06;100.00;98588.28;6375504;27;20185;-72
2022/01/05 05:45:27;;;;;;;11.88;7.35;;;;;;;9.14;100.00;98581.63;6375612;27;20207;-72
2022/01/05 05:48:27;;;;;;;12.98;7.82;;;;;;;9.12;100.00;98589.59;6357165;27;20104;-72
2022/01/05 05:51:28;;;;;;;13.60;8.05;;;;;;;9.12;100.00;98576.56;6373978;27;20039;-72
2022/01/05 05:54:30;;;;;;;12.95;7.47;;;;;;;9.01;100.00;98574.78;6374603;27;20067;-72
2022/01/05 05:57:31;;;;;;;15.10;7.45;;;;;;;9.07;100.00;98576.09;6374109;27;20063;-72
2022/01/05 06:00:31;;;;;;;14.20;7.95;;;;;;;9.02;100.00;98573.03;6374333;27;20050;-71
2022/01/05 06:03:32;;;;;;;13.27;7.60;;;;;;;9.00;100.00;98580.13;6375004;27;20043;-71
2022/01/05 06:06:33;;;;;;;14.13;8.05;;;;;;;9.10;100.00;98578.47;6373664;27;20493;-71
2022/01/05 06:09:34;;;;;;;13.82;7.68;;;;;;;9.09;100.00;98576.78;6356467;27;20043;-72
2022/01/05 06:12:34;;;;;;;12.65;7.15;;;;;;;9.15;99.67;98583.31;6373413;27;20043;-71
2022/01/05 06:15:35;;;;;;;12.90;7.65;;;;;;;9.26;98.63;98586.69;6367949;27;20054;-71
2022/01/05 06:18:36;;;;;;;12.10;6.63;;;;;;;9.16;98.38;98587.53;6355964;27;20068;-70
2022/01/05 06:21:37;;;;;;;12.18;7.22;;;;;;;9.23;99.19;98589.56;6352271;27;20122;-71
2022/01/05 06:24:39;;;;;;;12.95;6.05;;;;;;;9.11;99.68;98585.31;6356963;27;20039;-71
2022/01/05 06:27:40;;;;;;;15.95;7.35;;;;;;;9.09;99.05;98584.59;6354808;27;20046;-71
2022/01/05 06:30:41;;;;;;;13.57;7.60;;;;;;;9.12;98.49;98583.53;6370610;27;20141;-71
2022/01/05 06:33:42;;;;;;;11.70;7.38;;;;;;;9.20;98.63;98592.38;6357943;27;20039;-71
2022/01/05 06:36:43;;;;;;;11.60;6.43;;;;;;;9.11;99.99;98585.31;6354244;27;20036;-70
2022/01/05 06:39:44;;;;;;;12.40;7.05;;;;;;;9.06;100.00;98590.06;6372754;27;20035;-71
2022/01/05 06:42:45;;;;;;;12.70;7.28;;;;;;;9.11;100.00;98580.09;6374092;27;20053;-72
2022/01/05 06:45:45;;;;;;;11.65;7.03;;;;;;;9.14;99.69;98585.09;6373067;27;20035;-72
2022/01/05 06:48:46;;;;;;;15.05;7.28;;;;;;;9.13;100.00;98580.81;6373724;27;20039;-72
2022/01/05 06:51:47;;;;;;;18.25;7.63;;;;;;;9.14;100.00;98579.03;6372086;27;20467;-72
2022/01/05 06:54:48;;;;;;;15.13;7.55;;;;;;;9.13;99.48;98578.22;6355414;27;20120;-71
2022/01/05 06:57:51;;;;;;;14.30;6.88;;;;;;;9.14;100.00;98585.09;6373450;27;20481;-72
2022/01/05 07:00:51;;;;;;;10.65;7.03;;;;;;;9.17;99.82;98587.44;6373000;27;20096;-72
2022/01/05 07:03:52;;;;;;;12.75;6.80;;;;;;;9.13;99.60;98591.22;6373627;27;20035;-71
2022/01/05 07:06:53;;;;;;;12.02;7.43;;;;;;;9.09;100.00;98582.00;6372693;27;20110;-72
2022/01/05 07:09:53;;;;;;;10.77;6.22;;;;;;;9.05;100.00;98578.81;6372179;27;20459;-73
2022/01/05 07:12:54;;;;;;;10.45;6.55;;;;;;;9.09;99.88;98576.78;6373148;27;20043;-69
2022/01/05 07:15:55;;;;;;;12.98;6.97;;;;;;;9.17;99.12;98577.03;6335680;27;20054;-69
2022/01/05 07:18:56;;;;;;;10.15;6.40;;;;;;;9.15;100.00;98578.09;6357210;27;20072;-71
2022/01/05 07:21:57;;;;;;;11.07;7.13;;;;;;;9.17;99.43;98571.81;6359012;22;20051;-78
2022/01/05 07:24:58;;;;;;;11.63;6.57;;;;;;;9.16;99.04;98564.97;6313943;28;20044;-80
2022/01/05 07:27:59;;;;;;;13.95;8.18;;;;;;;9.26;98.29;98575.47;6325430;28;20036;-79
2022/01/05 07:30:59;;;;;;;15.90;6.43;;;;;;;9.16;97.67;98570.19;6286952;28;20040;-81
2022/01/05 07:34:00;;;;;;;11.02;6.95;;;;;;;9.26;98.26;98586.69;6286401;28;20040;-80
2022/01/05 07:37:01;;;;;;;14.50;6.82;;;;;;;9.19;98.34;98567.31;6301309;28;20062;-81
2022/01/05 07:40:03;;;;;;;8.80;5.93;;;;;;;9.21;97.18;98578.44;6311627;28;20055;-80
2022/01/05 07:43:06;;;;;;;11.82;6.28;;;;;;;9.24;97.53;98572.97;6313706;28;20040;-82
2022/01/05 07:46:07;;;;;;;12.18;6.20;;;;;;;9.19;97.33;98559.50;6313982;28;20129;-88
2022/01/05 07:49:09;;;;;;;13.77;8.05;;;;;;;9.24;96.60;98561.75;6313459;28;20407;-82
2022/01/05 07:52:09;;;;;;;10.70;5.53;;;;;;;9.19;97.28;98556.91;6329304;28;20118;-87
2022/01/05 07:55:11;;;;;;;12.50;6.35;;;;;;;9.20;96.64;98552.53;6304364;28;20044;-86
2022/01/05 07:58:12;;;;;;;13.55;6.22;;;;;;;9.29;96.68;98562.22;6289492;28;20055;-81
2022/01/05 08:01:13;;;;;;;11.13;5.47;;;;;;;9.23;96.89;98555.72;6312341;28;20387;-80
2022/01/05 08:04:15;;;;;;;8.43;5.63;;;;;;;9.23;96.80;98560.94;6312111;28;20036;-81
2022/01/05 08:07:16;;;;;;;11.23;6.60;;;;;;;9.24;95.95;98557.34;6304450;28;20276;-80
2022/01/05 08:10:17;;;;;;;9.63;6.18;;;;;;;9.23;97.09;98565.31;6315458;28;20051;-80
2022/01/05 08:13:18;;;;;;;11.88;6.30;;;;;;;9.25;96.55;98558.22;6310522;28;20040;-78
2022/01/05 08:16:19;;;;;;;10.60;5.47;;;;;;;9.27;96.44;98558.91;6310811;28;20425;-78
2022/01/05 08:19:20;;;;;;;11.82;6.15;;;;;;;9.27;95.90;98559.72;6327412;28;20484;-80
2022/01/05 08:22:22;;;;;;;8.60;5.30;;;;;;;9.32;95.63;98548.94;6346144;28;20047;-80
2022/01/05 08:25:22;;;;;;;8.48;5.78;;;;;;;9.30;95.77;98556.06;6327784;28;20047;-81
2022/01/05 08:28:23;;;;;;;9.40;5.53;;;;;;;9.34;96.34;98560.06;6328382;28;20070;-84
2022/01/05 08:31:24;;;;;;;9.88;5.57;;;;;;;9.40;95.51;98562.19;6328213;28;20036;-82
2022/01/05 08:34:25;;;;;;;9.40;5.72;;;;;;;9.51;95.16;98561.31;6322980;28;20036;-82
2022/01/05 08:37:26;;;;;;;8.68;5.38;;;;;;;9.44;94.69;98560.97;6347204;28;20044;-82
2022/01/05 08:40:28;;;;;;;10.20;5.70;;;;;;;9.54;95.14;98568.91;6312468;28;20040;-81
2022/01/05 08:43:29;;;;;;;10.50;5.85;;;;;;;9.55;95.94;98573.13;6347696;28;20483;-84
2022/01/05 08:46:29;;;;;;;9.60;5.57;;;;;;;9.62;95.69;98568.28;6294993;28;20063;-79
2022/01/05 08:49:30;;;;;;;10.00;6.20;;;;;;;9.51;95.05;98571.72;6312385;28;20047;-79
2022/01/05 08:52:31;;;;;;;13.10;6.38;;;;;;;9.48;95.37;98566.78;6295647;28;20135;-79
2022/01/05 08:55:41;;;;;;;10.18;5.85;;;;;;;9.45;95.57;98564.41;6292173;28;20027;-78
2022/01/05 08:58:42;;;;;;;10.98;6.30;;;;;;;9.60;96.01;98575.41;6345566;28;20048;-79
2022/01/05 09:01:44;;;;;;;12.18;5.70;;;;;;;9.55;95.27;98580.13;6328012;28;20055;-78
2022/01/05 09:04:44;;;;;;;11.70;5.82;;;;;;;9.61;94.89;98571.81;6325905;28;20050;-79
2022/01/05 09:07:45;;;;;;;10.23;5.60;;;;;;;9.59;94.20;98566.72;6325785;28;20047;-79
2022/01/05 09:10:46;;;;;;;11.52;6.57;;;;;;;9.62;94.07;98566.50;6302343;28;20495;-78
2022/01/05 09:13:47;;;;;;;9.35;5.70;;;;;;;9.63;94.92;98570.75;6314433;28;20052;-78
2022/01/05 09:16:48;;;;;;;11.65;6.13;;;;;;;9.61;95.40;98574.44;6311531;28;20088;-82
2022/01/05 09:19:49;;;;;;;10.40;6.15;;;;;;;9.57;94.66;98576.44;6328205;28;20451;-84
2022/01/05 09:22:50;;;;;;;8.40;5.00;;;;;;;9.55;93.03;98572.31;6311728;28;20064;-83
2022/01/05 09:25:51;;;;;;;9.90;5.40;;;;;;;9.56;93.84;98560.97;6309163;28;20479;-82
2022/01/05 09:28:51;;;;;;;12.93;6.25;;;;;;;9.56;94.92;98561.78;6312198;28;20050;-84
2022/01/05 09:31:53;;;;;;;13.75;6.10;;;;;;;9.58;94.21;98559.06;6328979;28;20459;-82
2022/01/05 09:34:54;;;;;;;11.10;6.63;;;;;;;9.55;94.37;98559.28;6294376;28;20046;-83
2022/01/05 09:41:56;;;;;;;10.75;6.57;;;;;;;9.61;94.09;98562.22;6294485;28;20498;-79
2022/01/05 09:41:56;;;;;;;9.18;5.55;;;;;;;9.52;95.02;98549.97;6256761;28;20489;-77
2022/01/05 09:44:58;;;;;;;11.55;6.50;;;;;;;9.60;95.59;98555.38;6218966;28;20308;-76
2022/01/05 09:48:20;;;;;;;10.02;5.50;;;;;;;9.59;95.15;98552.91;6251670;28;20052;-76
2022/01/05 09:51:24;;;;;;;12.10;6.40;;;;;;;9.66;94.80;98547.06;6290926;28;20428;-77
2022/01/05 09:54:26;;;;;;;9.02;5.82;;;;;;;9.67;94.63;98543.50;6293128;28;20087;-76
2022/01/05 09:57:31;;;;;;;9.75;5.82;;;;;;;9.68;94.05;98557.38;6269462;28;20061;-78
2022/01/05 10:00:32;;;;;;;11.70;6.53;;;;;;;9.73;94.01;98539.56;6263154;28;20121;-78
2022/01/05 10:03:33;;;;;;;10.80;6.35;;;;;;;9.76;94.61;98538.50;6288054;28;20040;-75
2022/01/05 10:06:36;;;;;;;14.85;7.40;;;;;;;9.73;94.42;98536.97;6312533;28;20055;-76
2022/01/05 10:09:38;;;;;;;11.93;5.72;;;;;;;9.74;95.38;98536.03;6315789;28;20078;-77
2022/01/05 10:12:39;;;;;;;11.43;6.55;;;;;;;9.74;96.12;98530.81;6332514;28;20046;-80
2022/01/05 10:15:40;;;;;;;10.73;6.05;;;;;;;9.62;97.59;98529.22;6332335;28;20051;-76
2022/01/05 10:18:43;;;;;;;9.35;5.82;;;;;;;9.59;98.75;98532.88;6315137;28;20147;-76
2022/01/05 10:21:44;;;;;;;9.30;5.72;;;;;;;9.64;97.22;98530.75;6331254;28;20048;-75
2022/01/05 10:24:48;;;;;;;9.73;5.85;;;;;;;9.64;97.74;98537.75;6330674;28;20035;-81
2022/01/05 10:27:56;;;;;;;10.05;5.97;;;;;;;9.69;97.21;98532.97;6348785;28;20126;-77
2022/01/05 10:30:57;;;;;;;11.32;6.97;;;;;;;9.74;97.74;98541.25;6313060;28;20047;-76
2022/01/05 10:33:59;;;;;;;9.20;5.68;;;;;;;9.73;96.81;98539.56;6330172;28;20523;-76
2022/01/05 10:37:05;;;;;;;13.80;6.93;;;;;;;9.73;97.07;98536.97;6346899;28;20047;-76
2022/01/05 10:40:08;;;;;;;20.52;10.25;;;;;;;9.83;97.73;98542.25;6345961;28;20040;-76
2022/01/05 10:43:13;;;;;;;9.40;5.55;;;;;;;9.82;96.51;98546.66;6348050;28;20051;-77
2022/01/05 10:46:32;;;;;;;11.25;5.95;;;;;;;9.86;96.49;98548.06;6329974;28;20047;-76
2022/01/05 10:49:38;;;;;;;10.75;6.18;;;;;;;9.81;97.89;98541.56;6330280;28;20043;-76
2022/01/05 10:52:41;;;;;;;8.25;5.60;;;;;;;9.81;97.97;98538.97;6329950;28;20411;-76
2022/01/05 10:55:44;;;;;;;13.75;6.00;;;;;;;9.85;98.16;98541.19;6330527;28;20035;-78
2022/01/05 10:58:46;;;;;;;10.45;5.72;;;;;;;9.92;98.73;98544.09;6330552;28;20039;-77
2022/01/05 11:01:48;;;;;;;11.77;5.38;;;;;;;9.86;97.88;98536.78;6330264;28;20122;-82
2022/01/05 11:04:50;;;;;;;8.98;5.72;;;;;;;10.00;98.10;98536.47;6314668;28;20414;-80
2022/01/05 11:08:06;;;;;;;9.77;5.50;;;;;;;10.15;97.69;98542.22;6331595;28;20032;-80
2022/01/05 11:11:29;;;;;;;9.30;5.60;;;;;;;10.11;97.25;98542.59;6310445;28;20450;-82
2022/01/05 11:14:32;;;;;;;9.18;5.63;;;;;;;10.12;97.49;98544.25;6305553;28;20070;-78
2022/01/05 11:17:33;;;;;;;12.95;5.90;;;;;;;10.13;97.94;98541.53;6323899;28;20051;-82
2022/01/05 11:20:42;;;;;;;10.70;5.78;;;;;;;10.12;98.10;98537.25;6288668;28;20048;-80
2022/01/05 11:23:42;;;;;;;11.73;7.72;;;;;;;10.27;96.79;98529.91;6305140;28;20480;-76
2022/01/05 11:26:43;;;;;;;46.97;21.20;;;;;;;10.44;96.01;98528.56;6304506;28;20044;-80
2022/01/05 11:29:46;;;;;;;85.70;43.65;;;;;;;10.56;96.19;98531.88;6322537;28;20514;-77
2022/01/05 11:32:48;;;;;;;17.08;9.10;;;;;;;10.59;95.40;98542.06;6287629;28;20402;-80
2022/01/05 11:35:49;;;;;;;17.92;11.07;;;;;;;10.61;95.64;98537.56;6305115;28;20066;-82
2022/01/05 11:38:50;;;;;;;32.63;15.63;;;;;;;10.58;96.79;98537.78;6323939;28;20434;-76
2022/01/05 11:41:52;;;;;;;12.98;6.70;;;;;;;10.58;96.59;98525.56;6329769;28;20272;-82
2022/01/05 11:44:54;;;;;;;;;;;;;;;10.59;98.10;98535.06;6330590;28;20478;-83
2022/01/05 11:48:12;;;;;;;10.23;5.40;;;;;;;10.43;98.61;98532.09;6347250;28;19923;-76
2022/01/05 11:51:13;;;;;;;11.88;5.80;;;;;;;10.43;99.21;98532.91;6329441;28;20297;-83
2022/01/05 11:54:25;;;;;;;10.55;6.18;;;;;;;10.53;100.00;98535.59;6311949;28;20039;-77
2022/01/05 11:57:26;;;;;;;8.57;5.65;;;;;;;10.52;99.43;98517.44;6311784;28;20419;-76
2022/01/05 12:00:27;;;;;;;10.90;6.10;;;;;;;10.48;100.00;98506.47;6328829;28;20051;-85
2022/01/05 12:04:01;;;;;;;10.35;6.25;;;;;;;10.64;100.00;98505.97;6330201;28;20051;-82
2022/01/05 12:07:04;;;;;;;10.27;6.20;;;;;;;10.84;99.36;98515.50;6328656;28;20051;-76
2022/01/05 12:10:28;;;;;;;11.05;5.97;;;;;;;10.91;97.89;98512.38;6329575;28;20067;-83
2022/01/05 12:13:36;;;;;;;10.88;5.35;;;;;;;10.94;97.39;98512.94;6329394;28;20039;-76
2022/01/05 12:20:05;;;;;;;9.68;5.55;;;;;;;11.02;97.05;98507.06;6321550;28;20451;-76
2022/01/05 12:23:30;;;;;;;10.18;5.22;;;;;;;11.09;96.69;98511.59;6321631;28;20799;-75
2022/01/05 12:26:31;;;;;;;10.25;5.40;;;;;;;11.09;97.89;98513.38;6303817;28;20063;-79
2022/01/05 12:29:31;;;;;;;13.38;6.05;;;;;;;11.01;96.71;98516.66;6330606;28;20048;-75
2022/01/05 12:32:33;;;;;;;13.30;5.78;;;;;;;11.03;97.93;98514.72;6328544;28;20118;-74
2022/01/05 12:35:49;;;;;;;8.40;5.43;;;;;;;11.01;98.03;98518.44;6344669;28;20039;-75
2022/01/05 12:38:54;;;;;;;8.32;5.57;;;;;;;11.05;97.80;98514.59;6347292;28;20039;-81
2022/01/05 12:42:21;;;;;;;10.80;5.25;;;;;;;10.95;98.48;98511.97;6348007;28;20444;-81
2022/01/05 12:45:58;;;;;;;12.75;5.13;;;;;;;10.89;99.25;98510.75;6298410;28;20036;-82
2022/01/05 12:49:02;;;;;;;10.23;5.55;;;;;;;10.92;99.50;98517.47;6294041;28;20456;-80
2022/01/05 12:52:08;;;;;;;12.85;5.75;;;;;;;10.87;100.00;98511.81;6312144;28;20040;-81
2022/01/05 12:55:08;;;;;;;10.05;5.47;;;;;;;10.85;99.53;98504.13;6349896;28;20101;-82
2022/01/05 12:58:09;;;;;;;12.20;5.50;;;;;;;10.87;99.33;98510.03;6315043;28;20039;-82
2022/01/05 13:01:10;;;;;;;11.10;6.28;;;;;;;10.86;99.40;98497.13;6329145;28;20039;-80
2022/01/05 13:04:13;;;;;;;9.57;5.72;;;;;;;10.99;99.03;98504.69;6347369;28;20043;-81
2022/01/05 13:07:14;;;;;;;10.85;5.38;;;;;;;10.93;98.91;98500.84;6327420;28;20040;-81
2022/01/05 13:10:16;;;;;;;9.18;5.47;;;;;;;10.89;99.29;98496.84;6329007;28;20048;-81
2022/01/05 13:13:17;;;;;;;7.18;5.22;;;;;;;10.86;99.49;98491.91;6312249;28;20462;-81
2022/01/05 13:16:18;;;;;;;9.45;4.95;;;;;;;10.98;98.72;98495.25;6346782;28;20039;-81
2022/01/05 13:19:23;;;;;;;10.70;5.53;;;;;;;10.93;99.61;98495.63;6329530;28;20050;-80
2022/01/05 13:22:44;;;;;;;11.27;5.60;;;;;;;10.91;99.48;98500.16;6328345;28;20052;-80
2022/01/05 13:25:46;;;;;;;10.20;5.57;;;;;;;10.92;99.68;98490.56;6328985;28;20055;-80
2022/01/05 13:28:51;;;;;;;8.40;5.90;;;;;;;11.05;99.08;98493.72;6347220;28;20122;-83
2022/01/05 13:32:01;;;;;;;11.38;5.78;;;;;;;11.12;98.13;98500.06;6348096;28;20044;-81
2022/01/05 13:35:07;;;;;;;8.25;5.32;;;;;;;11.06;99.33;98498.00;6333645;28;20047;-80
2022/01/05 13:38:14;;;;;;;10.98;6.88;;;;;;;11.08;99.60;98494.28;6333464;28;20043;-82
2022/01/05 13:41:15;;;;;;;11.65;7.47;;;;;;;11.01;100.00;98506.22;6329915;28;20040;-81
2022/01/05 13:44:16;;;;;;;15.52;6.93;;;;;;;10.93;100.00;98500.84;6314661;28;20044;-81
2022/01/05 13:47:17;;;;;;;12.15;7.15;;;;;;;11.10;100.00;98502.00;6351513;28;20035;-82
2022/01/05 13:50:26;;;;;;;12.32;6.20;;;;;;;10.94;100.00;98504.28;6331573;28;20528;-76
2022/01/05 13:53:34;;;;;;;8.43;5.60;;;;;;;10.86;100.00;98505.78;6349172;28;20036;-81
2022/01/05 13:56:40;;;;;;;16.05;7.03;;;;;;;10.94;100.00;98512.94;6333579;28;20047;-81
2022/01/05 13:59:45;;;;;;;9.25;6.22;;;;;;;10.92;100.00;98506.22;6350748;28;20043;-82
2022/01/05 14:02:46;;;;;;;14.30;6.15;;;;;;;10.98;100.00;98510.91;6352309;28;20070;-82
2022/01/05 14:05:47;;;;;;;10.75;5.90;;;;;;;10.95;100.00;98513.75;6349439;28;20032;-81
2022/01/05 14:08:53;;;;;;;12.27;6.82;;;;;;;10.98;100.00;98514.31;6352195;28;20130;-81
2022/01/05 14:11:57;;;;;;;10.48;6.63;;;;;;;11.01;100.00;98515.84;6333596;28;20122;-81
2022/01/05 14:15:18;;;;;;;13.02;7.38;;;;;;;10.92;100.00;98511.44;6350472;28;20385;-81
2022/01/05 14:18:19;;;;;;;13.00;6.57;;;;;;;10.93;100.00;98511.28;6311285;28;20055;-81